createdAt,value
2023-01-07T00:00:54.330Z,8.32
2023-01-07T00:01:54.323Z,8.35
2023-01-07T00:02:54.374Z,8.34
2023-01-07T00:03:54.421Z,8.37
2023-01-07T00:04:54.668Z,8.34
2023-01-07T00:05:54.278Z,8.35
2023-01-07T00:06:54.698Z,8.34
2023-01-07T00:07:54.281Z,8.35
2023-01-07T00:08:54.260Z,8.34
2023-01-07T00:09:54.233Z,8.35
2023-01-07T00:10:54.229Z,8.34
2023-01-07T00:11:54.233Z,8.34
2023-01-07T00:12:54.232Z,8.35
2023-01-07T00:13:54.199Z,8.32
2023-01-07T00:14:54.191Z,8.31
2023-01-07T00:15:54.246Z,8.31
2023-01-07T00:16:54.186Z,8.35
2023-01-07T00:17:54.161Z,8.37
2023-01-07T00:18:54.166Z,8.37
2023-01-07T00:19:54.135Z,8.39
2023-01-07T00:20:54.125Z,8.39
2023-01-07T00:21:54.482Z,8.35
2023-01-07T00:22:54.108Z,8.35
2023-01-07T00:23:54.096Z,8.38
2023-01-07T00:24:54.092Z,8.34
2023-01-07T00:25:54.078Z,8.38
2023-01-07T00:26:54.074Z,8.37
2023-01-07T00:27:54.056Z,8.39
2023-01-07T00:28:54.047Z,8.38
2023-01-07T00:29:54.050Z,8.37
2023-01-07T00:30:54.038Z,8.38
2023-01-07T00:31:54.013Z,8.37
2023-01-07T00:32:54.373Z,8.39
2023-01-07T00:33:53.991Z,8.38
2023-01-07T00:34:53.980Z,8.37
2023-01-07T00:35:53.969Z,8.41
2023-01-07T00:36:53.963Z,8.38
2023-01-07T00:37:53.969Z,8.42
2023-01-07T00:38:53.949Z,8.41
2023-01-07T00:39:53.933Z,8.39
2023-01-07T00:40:53.925Z,8.39
2023-01-07T00:41:54.345Z,8.42
2023-01-07T00:42:53.922Z,8.39
2023-01-07T00:43:53.887Z,8.37
2023-01-07T00:44:53.885Z,8.35
2023-01-07T00:45:53.868Z,8.37
2023-01-07T00:46:54.286Z,8.38
2023-01-07T00:47:53.864Z,8.41
2023-01-07T00:48:53.847Z,8.39
2023-01-07T00:49:53.825Z,8.38
2023-01-07T00:50:53.821Z,8.41
2023-01-07T00:51:53.814Z,8.37
2023-01-07T00:52:53.942Z,8.41
2023-01-07T00:53:53.788Z,8.41
2023-01-07T00:54:53.793Z,8.42
2023-01-07T00:55:53.771Z,8.44
2023-01-07T00:56:53.795Z,8.49
2023-01-07T00:57:54.131Z,8.52
2023-01-07T00:58:53.758Z,8.46
2023-01-07T00:59:53.728Z,8.50
2023-01-07T01:00:53.910Z,8.47
2023-01-07T01:01:53.730Z,8.50
2023-01-07T01:02:53.819Z,8.53
2023-01-07T01:03:53.689Z,8.53
2023-01-07T01:04:53.684Z,8.53
2023-01-07T01:05:53.680Z,8.53
2023-01-07T01:06:53.679Z,8.50
2023-01-07T01:07:53.644Z,8.50
2023-01-07T01:08:53.637Z,8.53
2023-01-07T01:09:53.628Z,8.50
2023-01-07T01:10:53.618Z,8.52
2023-01-07T01:11:53.612Z,8.50
2023-01-07T01:12:53.598Z,8.50
2023-01-07T01:13:53.582Z,8.53
2023-01-07T01:14:53.575Z,8.53
2023-01-07T01:15:53.597Z,8.55
2023-01-07T01:16:53.877Z,8.53
2023-01-07T01:17:53.547Z,8.52
2023-01-07T01:18:53.546Z,8.53
2023-01-07T01:19:53.524Z,8.56
2023-01-07T01:20:53.520Z,8.53
2023-01-07T01:21:54.005Z,8.53
2023-01-07T01:22:53.493Z,8.55
2023-01-07T01:23:53.476Z,8.55
2023-01-07T01:24:53.487Z,8.53
2023-01-07T01:25:53.461Z,8.50
2023-01-07T01:26:53.459Z,8.47
2023-01-07T01:27:53.443Z,8.50
2023-01-07T01:28:53.436Z,8.53
2023-01-07T01:29:53.421Z,8.52
2023-01-07T01:30:53.417Z,8.53
2023-01-07T01:31:53.589Z,8.50
2023-01-07T01:32:53.395Z,8.56
2023-01-07T01:33:53.413Z,8.57
2023-01-07T01:34:53.383Z,8.59
2023-01-07T01:35:53.360Z,8.53
2023-01-07T01:36:53.357Z,8.59
2023-01-07T01:37:53.347Z,8.57
2023-01-07T01:38:53.350Z,8.57
2023-01-07T01:39:53.326Z,8.57
2023-01-07T01:40:53.323Z,8.49
2023-01-07T01:41:53.315Z,8.52
2023-01-07T01:42:53.297Z,8.49
2023-01-07T01:43:53.276Z,8.49
2023-01-07T01:44:53.291Z,8.44
2023-01-07T01:45:53.256Z,8.46
2023-01-07T01:46:53.288Z,8.49
2023-01-07T01:47:53.238Z,8.49
2023-01-07T01:48:53.232Z,8.46
2023-01-07T01:49:53.238Z,8.47
2023-01-07T01:50:53.210Z,8.44
2023-01-07T01:51:53.198Z,8.46
2023-01-07T01:52:53.195Z,8.49
2023-01-07T01:53:53.176Z,8.46
2023-01-07T01:54:53.172Z,8.44
2023-01-07T01:55:53.157Z,8.44
2023-01-07T01:56:53.159Z,8.49
2023-01-07T01:57:53.153Z,8.49
2023-01-07T01:58:53.141Z,8.47
2023-01-07T01:59:53.246Z,8.44
2023-01-07T02:00:53.194Z,8.41
2023-01-07T02:01:53.230Z,8.41
2023-01-07T02:02:53.102Z,8.38
2023-01-07T02:03:53.079Z,8.37
2023-01-07T02:04:53.867Z,8.35
2023-01-07T02:05:53.073Z,8.35
2023-01-07T02:06:53.047Z,8.35
2023-01-07T02:07:53.036Z,8.35
2023-01-07T02:08:53.036Z,8.32
2023-01-07T02:09:53.044Z,8.34
2023-01-07T02:10:53.015Z,8.29
2023-01-07T02:11:52.997Z,8.28
2023-01-07T02:12:52.991Z,8.31
2023-01-07T02:13:52.975Z,8.31
2023-01-07T02:14:52.973Z,8.32
2023-01-07T02:15:52.992Z,8.29
2023-01-07T02:16:52.948Z,8.28
2023-01-07T02:17:52.938Z,8.26
2023-01-07T02:18:52.933Z,8.29
2023-01-07T02:19:52.912Z,8.29
2023-01-07T02:20:52.941Z,8.31
2023-01-07T02:21:52.898Z,8.28
2023-01-07T02:22:52.888Z,8.24
2023-01-07T02:23:52.882Z,8.24
2023-01-07T02:24:52.872Z,8.28
2023-01-07T02:25:52.868Z,8.24
2023-01-07T02:26:52.851Z,8.26
2023-01-07T02:27:52.832Z,8.24
2023-01-07T02:28:52.829Z,8.23
2023-01-07T02:29:52.813Z,8.23
2023-01-07T02:30:52.809Z,8.23
2023-01-07T02:31:53.208Z,8.21
2023-01-07T02:32:52.793Z,8.20
2023-01-07T02:33:52.772Z,8.21
2023-01-07T02:34:52.767Z,8.29
2023-01-07T02:35:52.747Z,8.28
2023-01-07T02:36:52.754Z,8.24
2023-01-07T02:37:52.734Z,8.23
2023-01-07T02:38:52.741Z,8.26
2023-01-07T02:39:52.718Z,8.21
2023-01-07T02:40:52.706Z,8.26
2023-01-07T02:41:52.713Z,8.28
2023-01-07T02:42:52.686Z,8.24
2023-01-07T02:43:52.683Z,8.24
2023-01-07T02:44:52.674Z,8.23
2023-01-07T02:45:52.704Z,8.24
2023-01-07T02:46:52.651Z,8.20
2023-01-07T02:47:52.629Z,8.24
2023-01-07T02:48:53.091Z,8.21
2023-01-07T02:49:52.603Z,8.23
2023-01-07T02:50:52.630Z,8.28
2023-01-07T02:51:53.450Z,8.21
2023-01-07T02:52:52.579Z,8.23
2023-01-07T02:53:52.567Z,8.26
2023-01-07T02:54:52.560Z,8.24
2023-01-07T02:55:52.550Z,8.24
2023-01-07T02:56:52.541Z,8.20
2023-01-07T02:57:52.531Z,8.23
2023-01-07T02:58:52.517Z,8.24
2023-01-07T02:59:52.503Z,8.28
2023-01-07T03:00:52.705Z,8.31
2023-01-07T03:01:53.401Z,8.28
2023-01-07T03:02:52.479Z,8.28
2023-01-07T03:03:53.019Z,8.29
2023-01-07T03:04:52.465Z,8.31
2023-01-07T03:05:52.451Z,8.31
2023-01-07T03:06:52.441Z,8.31
2023-01-07T03:07:52.425Z,8.31
2023-01-07T03:08:52.440Z,8.28
2023-01-07T03:09:52.402Z,8.31
2023-01-07T03:10:52.408Z,8.34
2023-01-07T03:11:52.394Z,8.32
2023-01-07T03:12:52.375Z,8.34
2023-01-07T03:13:52.741Z,8.35
2023-01-07T03:14:52.352Z,8.32
2023-01-07T03:15:52.371Z,8.37
2023-01-07T03:16:52.409Z,8.38
2023-01-07T03:17:52.321Z,8.32
2023-01-07T03:18:52.316Z,8.34
2023-01-07T03:19:52.302Z,8.35
2023-01-07T03:20:52.292Z,8.35
2023-01-07T03:21:52.287Z,8.31
2023-01-07T03:22:52.272Z,8.34
2023-01-07T03:23:52.265Z,8.32
2023-01-07T03:24:52.248Z,8.32
2023-01-07T03:25:52.244Z,8.29
2023-01-07T03:26:52.250Z,8.32
2023-01-07T03:27:52.226Z,8.32
2023-01-07T03:28:52.207Z,8.29
2023-01-07T03:29:52.204Z,8.34
2023-01-07T03:30:52.185Z,8.31
2023-01-07T03:31:52.246Z,8.31
2023-01-07T03:32:52.165Z,8.31
2023-01-07T03:33:52.562Z,8.31
2023-01-07T03:34:52.155Z,8.32
2023-01-07T03:35:52.164Z,8.28
2023-01-07T03:36:52.215Z,8.31
2023-01-07T03:37:52.166Z,8.31
2023-01-07T03:38:52.119Z,8.35
2023-01-07T03:39:52.107Z,8.38
2023-01-07T03:40:52.093Z,8.38
2023-01-07T03:41:52.074Z,8.35
2023-01-07T03:42:52.068Z,8.39
2023-01-07T03:43:52.065Z,8.32
2023-01-07T03:44:52.045Z,8.39
2023-01-07T03:45:52.135Z,8.39
2023-01-07T03:46:52.023Z,8.38
2023-01-07T03:47:52.028Z,8.39
2023-01-07T03:48:52.009Z,8.39
2023-01-07T03:49:52.000Z,8.42
2023-01-07T03:50:51.984Z,8.41
2023-01-07T03:51:51.984Z,8.39
2023-01-07T03:52:51.980Z,8.38
2023-01-07T03:53:52.337Z,8.41
2023-01-07T03:54:51.939Z,8.39
2023-01-07T03:55:51.941Z,8.41
2023-01-07T03:56:51.923Z,8.39
2023-01-07T03:57:51.909Z,8.41
2023-01-07T03:58:51.921Z,8.39
2023-01-07T03:59:51.897Z,8.44
2023-01-07T04:00:51.995Z,8.41
2023-01-07T04:01:52.012Z,8.44
2023-01-07T04:02:51.857Z,8.41
2023-01-07T04:03:51.879Z,8.41
2023-01-07T04:04:51.848Z,8.41
2023-01-07T04:05:51.833Z,8.42
2023-01-07T04:06:51.816Z,8.44
2023-01-07T04:07:51.817Z,8.41
2023-01-07T04:08:51.801Z,8.41
2023-01-07T04:09:52.208Z,8.41
2023-01-07T04:10:51.781Z,8.42
2023-01-07T04:11:51.770Z,8.44
2023-01-07T04:12:51.760Z,8.39
2023-01-07T04:13:51.772Z,8.41
2023-01-07T04:14:51.743Z,8.41
2023-01-07T04:15:51.731Z,8.39
2023-01-07T04:16:51.771Z,8.38
2023-01-07T04:17:51.727Z,8.35
2023-01-07T04:18:51.700Z,8.38
2023-01-07T04:19:51.690Z,8.34
2023-01-07T04:20:52.098Z,8.35
2023-01-07T04:21:51.673Z,8.39
2023-01-07T04:22:51.649Z,8.34
2023-01-07T04:23:51.650Z,8.38
2023-01-07T04:24:51.634Z,8.35
2023-01-07T04:25:51.629Z,8.35
2023-01-07T04:26:51.616Z,8.41
2023-01-07T04:27:51.606Z,8.39
2023-01-07T04:28:51.592Z,8.42
2023-01-07T04:29:52.019Z,8.37
2023-01-07T04:30:51.698Z,8.39
2023-01-07T04:31:51.562Z,8.41
2023-01-07T04:32:51.554Z,8.41
2023-01-07T04:33:51.566Z,8.42
2023-01-07T04:34:51.541Z,8.39
2023-01-07T04:35:51.533Z,8.39
2023-01-07T04:36:51.521Z,8.41
2023-01-07T04:37:51.507Z,8.46
2023-01-07T04:38:51.912Z,8.41
2023-01-07T04:39:51.870Z,8.46
2023-01-07T04:40:51.467Z,8.46
2023-01-07T04:41:51.465Z,8.42
2023-01-07T04:42:51.454Z,8.42
2023-01-07T04:43:51.447Z,8.41
2023-01-07T04:44:51.432Z,8.42
2023-01-07T04:45:51.539Z,8.38
2023-01-07T04:46:51.412Z,8.44
2023-01-07T04:47:51.404Z,8.41
2023-01-07T04:48:51.388Z,8.44
2023-01-07T04:49:51.735Z,8.39
2023-01-07T04:50:51.369Z,8.39
2023-01-07T04:51:51.389Z,8.38
2023-01-07T04:52:51.371Z,8.44
2023-01-07T04:53:51.342Z,8.39
2023-01-07T04:54:51.336Z,8.38
2023-01-07T04:55:51.319Z,8.41
2023-01-07T04:56:51.307Z,8.41
2023-01-07T04:57:51.797Z,8.39
2023-01-07T04:58:51.287Z,8.42
2023-01-07T04:59:51.297Z,8.39
2023-01-07T05:00:51.667Z,8.39
2023-01-07T05:01:51.346Z,8.41
2023-01-07T05:02:51.251Z,8.38
2023-01-07T05:03:51.247Z,8.41
2023-01-07T05:04:51.327Z,8.42
2023-01-07T05:05:51.220Z,8.44
2023-01-07T05:06:51.447Z,8.42
2023-01-07T05:07:51.207Z,8.44
2023-01-07T05:08:51.184Z,8.41
2023-01-07T05:09:51.179Z,8.42
2023-01-07T05:10:51.190Z,8.37
2023-01-07T05:11:51.160Z,8.41
2023-01-07T05:12:51.580Z,8.42
2023-01-07T05:13:51.141Z,8.41
2023-01-07T05:14:51.131Z,8.41
2023-01-07T05:15:51.118Z,8.37
2023-01-07T05:16:51.194Z,8.41
2023-01-07T05:17:51.101Z,8.41
2023-01-07T05:18:51.079Z,8.38
2023-01-07T05:19:51.080Z,8.44
2023-01-07T05:20:51.090Z,8.41
2023-01-07T05:21:51.057Z,8.39
2023-01-07T05:22:51.045Z,8.38
2023-01-07T05:23:51.038Z,8.39
2023-01-07T05:24:51.046Z,8.37
2023-01-07T05:25:51.012Z,8.39
2023-01-07T05:26:51.005Z,8.39
2023-01-07T05:27:50.993Z,8.37
2023-01-07T05:28:50.983Z,8.38
2023-01-07T05:29:50.992Z,8.39
2023-01-07T05:30:50.984Z,8.42
2023-01-07T05:31:51.323Z,8.35
2023-01-07T05:32:50.942Z,8.39
2023-01-07T05:33:50.937Z,8.38
2023-01-07T05:34:50.919Z,8.39
2023-01-07T05:35:50.917Z,8.35
2023-01-07T05:36:50.957Z,8.38
2023-01-07T05:37:50.903Z,8.35
2023-01-07T05:38:50.890Z,8.34
2023-01-07T05:39:51.266Z,8.38
2023-01-07T05:40:50.873Z,8.37
2023-01-07T05:41:50.861Z,8.35
2023-01-07T05:42:50.895Z,8.35
2023-01-07T05:43:50.934Z,8.37
2023-01-07T05:44:50.837Z,8.41
2023-01-07T05:45:50.847Z,8.41
2023-01-07T05:46:50.801Z,8.38
2023-01-07T05:47:51.211Z,8.42
2023-01-07T05:48:50.777Z,8.39
2023-01-07T05:49:50.770Z,8.37
2023-01-07T05:50:50.763Z,8.41
2023-01-07T05:51:51.177Z,8.38
2023-01-07T05:52:50.738Z,8.38
2023-01-07T05:53:51.114Z,8.41
2023-01-07T05:54:50.714Z,8.38
2023-01-07T05:55:50.712Z,8.42
2023-01-07T05:56:50.695Z,8.41
2023-01-07T05:57:50.692Z,8.38
2023-01-07T05:58:50.688Z,8.42
2023-01-07T05:59:50.671Z,8.44
2023-01-07T06:00:50.704Z,8.39
2023-01-07T06:01:51.036Z,8.39
2023-01-07T06:02:50.643Z,8.41
2023-01-07T06:03:50.684Z,8.42
2023-01-07T06:04:50.641Z,8.41
2023-01-07T06:05:50.611Z,8.46
2023-01-07T06:06:50.603Z,8.44
2023-01-07T06:07:50.589Z,8.44
2023-01-07T06:08:50.572Z,8.42
2023-01-07T06:09:50.572Z,8.41
2023-01-07T06:10:50.593Z,8.42
2023-01-07T06:11:50.556Z,8.39
2023-01-07T06:12:50.534Z,8.44
2023-01-07T06:13:50.536Z,8.47
2023-01-07T06:14:50.522Z,8.47
2023-01-07T06:15:50.554Z,8.44
2023-01-07T06:16:50.494Z,8.46
2023-01-07T06:17:50.495Z,8.47
2023-01-07T06:18:50.471Z,8.47
2023-01-07T06:19:50.540Z,8.49
2023-01-07T06:20:50.504Z,8.46
2023-01-07T06:21:50.447Z,8.50
2023-01-07T06:22:50.431Z,8.47
2023-01-07T06:23:50.451Z,8.49
2023-01-07T06:24:50.417Z,8.46
2023-01-07T06:25:50.404Z,8.50
2023-01-07T06:26:50.398Z,8.52
2023-01-07T06:27:50.392Z,8.50
2023-01-07T06:28:50.372Z,8.49
2023-01-07T06:29:50.372Z,8.49
2023-01-07T06:30:50.424Z,8.52
2023-01-07T06:31:50.349Z,8.52
2023-01-07T06:32:50.336Z,8.49
2023-01-07T06:33:50.338Z,8.55
2023-01-07T06:34:50.314Z,8.55
2023-01-07T06:35:50.310Z,8.50
2023-01-07T06:36:50.551Z,8.52
2023-01-07T06:37:50.297Z,8.55
2023-01-07T06:38:50.273Z,8.53
2023-01-07T06:39:50.270Z,8.50
2023-01-07T06:40:50.250Z,8.50
2023-01-07T06:41:50.266Z,8.50
2023-01-07T06:42:50.241Z,8.50
2023-01-07T06:43:50.261Z,8.49
2023-01-07T06:44:50.215Z,8.52
2023-01-07T06:45:50.216Z,8.52
2023-01-07T06:46:50.197Z,8.49
2023-01-07T06:47:50.188Z,8.52
2023-01-07T06:48:50.121Z,8.49
2023-01-07T06:49:50.171Z,8.55
2023-01-07T06:50:50.128Z,8.50
2023-01-07T06:51:50.091Z,8.53
2023-01-07T06:52:50.078Z,8.52
2023-01-07T06:53:50.603Z,8.53
2023-01-07T06:54:50.072Z,8.55
2023-01-07T06:55:50.051Z,8.56
2023-01-07T06:56:50.087Z,8.56
2023-01-07T06:57:50.051Z,8.53
2023-01-07T06:58:50.038Z,8.52
2023-01-07T06:59:50.010Z,8.55
2023-01-07T07:00:50.046Z,8.57
2023-01-07T07:01:50.080Z,8.53
2023-01-07T07:02:50.051Z,8.52
2023-01-07T07:03:50.000Z,8.55
2023-01-07T07:04:49.962Z,8.56
2023-01-07T07:05:49.953Z,8.53
2023-01-07T07:06:50.096Z,8.53
2023-01-07T07:07:49.929Z,8.53
2023-01-07T07:08:50.331Z,8.50
2023-01-07T07:09:49.915Z,8.53
2023-01-07T07:10:49.898Z,8.55
2023-01-07T07:11:50.474Z,8.55
2023-01-07T07:12:49.875Z,8.53
2023-01-07T07:13:49.880Z,8.50
2023-01-07T07:14:49.860Z,8.57
2023-01-07T07:15:49.980Z,8.57
2023-01-07T07:16:49.843Z,8.57
2023-01-07T07:17:50.309Z,8.57
2023-01-07T07:18:49.810Z,8.57
2023-01-07T07:19:50.231Z,8.59
2023-01-07T07:20:49.799Z,8.60
2023-01-07T07:21:49.793Z,8.57
2023-01-07T07:22:49.774Z,8.56
2023-01-07T07:23:49.774Z,8.59
2023-01-07T07:24:49.751Z,8.59
2023-01-07T07:25:49.746Z,8.57
2023-01-07T07:26:49.746Z,8.60
2023-01-07T07:27:49.728Z,8.60
2023-01-07T07:28:49.714Z,8.63
2023-01-07T07:29:49.718Z,8.63
2023-01-07T07:30:49.709Z,8.62
2023-01-07T07:31:49.686Z,8.62
2023-01-07T07:32:49.674Z,8.65
2023-01-07T07:33:49.684Z,8.63
2023-01-07T07:34:49.651Z,8.63
2023-01-07T07:35:49.647Z,8.60
2023-01-07T07:36:49.652Z,8.60
2023-01-07T07:37:49.621Z,8.63
2023-01-07T07:38:49.618Z,8.65
2023-01-07T07:39:50.038Z,8.63
2023-01-07T07:40:49.611Z,8.62
2023-01-07T07:41:49.579Z,8.70
2023-01-07T07:43:10.324Z,8.67
2023-01-07T07:43:49.568Z,8.65
2023-01-07T07:44:49.587Z,8.68
2023-01-07T07:45:49.543Z,8.70
2023-01-07T07:46:49.643Z,8.70
2023-01-07T07:47:49.520Z,8.70
2023-01-07T07:48:49.528Z,8.67
2023-01-07T07:49:49.498Z,8.72
2023-01-07T07:50:49.516Z,8.70
2023-01-07T07:51:49.476Z,8.70
2023-01-07T07:52:49.477Z,8.70
2023-01-07T07:53:49.455Z,8.71
2023-01-07T07:54:49.864Z,8.70
2023-01-07T07:55:49.438Z,8.70
2023-01-07T07:56:49.853Z,8.72
2023-01-07T07:57:49.415Z,8.75
2023-01-07T07:58:49.414Z,8.75
2023-01-07T07:59:49.399Z,8.74
2023-01-07T08:00:49.391Z,8.71
2023-01-07T08:01:49.520Z,8.75
2023-01-07T08:02:49.418Z,8.74
2023-01-07T08:03:49.359Z,8.75
2023-01-07T08:04:49.356Z,8.72
2023-01-07T08:05:49.334Z,8.72
2023-01-07T08:06:49.336Z,8.74
2023-01-07T08:07:49.321Z,8.74
2023-01-07T08:08:49.316Z,8.72
2023-01-07T08:09:49.293Z,8.74
2023-01-07T08:10:49.289Z,8.78
2023-01-07T08:11:49.277Z,8.72
2023-01-07T08:12:49.261Z,8.71
2023-01-07T08:13:49.272Z,8.70
2023-01-07T08:14:49.250Z,8.70
2023-01-07T08:15:49.284Z,8.70
2023-01-07T08:16:49.249Z,8.68
2023-01-07T08:17:49.221Z,8.67
2023-01-07T08:18:49.215Z,8.70
2023-01-07T08:19:49.195Z,8.67
2023-01-07T08:20:49.194Z,8.71
2023-01-07T08:21:49.186Z,8.68
2023-01-07T08:22:49.183Z,8.71
2023-01-07T08:23:49.158Z,8.68
2023-01-07T08:24:49.156Z,8.65
2023-01-07T08:25:49.129Z,8.71
2023-01-07T08:26:49.124Z,8.70
2023-01-07T08:27:49.110Z,8.72
2023-01-07T08:28:49.104Z,8.72
2023-01-07T08:29:49.507Z,8.70
2023-01-07T08:30:49.084Z,8.72
2023-01-07T08:31:49.069Z,8.75
2023-01-07T08:32:49.071Z,8.71
2023-01-07T08:33:49.070Z,8.75
2023-01-07T08:34:49.062Z,8.74
2023-01-07T08:35:49.032Z,8.80
2023-01-07T08:36:49.020Z,8.75
2023-01-07T08:37:49.030Z,8.74
2023-01-07T08:38:49.010Z,8.80
2023-01-07T08:39:48.983Z,8.75
2023-01-07T08:40:48.982Z,8.78
2023-01-07T08:41:48.999Z,8.74
2023-01-07T08:42:48.959Z,8.78
2023-01-07T08:43:48.956Z,8.77
2023-01-07T08:44:48.955Z,8.83
2023-01-07T08:45:48.928Z,8.81
2023-01-07T08:46:48.942Z,8.78
2023-01-07T08:47:48.907Z,8.80
2023-01-07T08:48:48.903Z,8.80
2023-01-07T08:49:48.891Z,8.83
2023-01-07T08:50:48.880Z,8.85
2023-01-07T08:51:48.869Z,8.83
2023-01-07T08:52:48.863Z,8.86
2023-01-07T08:53:49.261Z,8.88
2023-01-07T08:54:48.850Z,8.86
2023-01-07T08:55:48.826Z,8.88
2023-01-07T08:56:48.819Z,8.89
2023-01-07T08:57:48.805Z,8.92
2023-01-07T08:58:48.808Z,8.88
2023-01-07T08:59:48.783Z,8.92
2023-01-07T09:00:48.829Z,8.89
2023-01-07T09:01:49.341Z,8.89
2023-01-07T09:02:48.801Z,8.88
2023-01-07T09:03:48.745Z,8.89
2023-01-07T09:04:48.740Z,8.90
2023-01-07T09:05:48.731Z,8.88
2023-01-07T09:06:48.749Z,8.86
2023-01-07T09:07:48.705Z,8.89
2023-01-07T09:08:48.698Z,8.89
2023-01-07T09:09:48.683Z,8.83
2023-01-07T09:10:48.679Z,8.85
2023-01-07T09:11:48.953Z,8.86
2023-01-07T09:12:48.663Z,8.83
2023-01-07T09:13:48.639Z,8.86
2023-01-07T09:14:48.644Z,8.85
2023-01-07T09:15:48.630Z,8.83
2023-01-07T09:16:49.107Z,8.83
2023-01-07T09:17:48.609Z,8.89
2023-01-07T09:18:48.603Z,8.88
2023-01-07T09:19:48.589Z,8.88
2023-01-07T09:20:48.587Z,8.86
2023-01-07T09:21:48.976Z,8.90
2023-01-07T09:22:48.561Z,8.92
2023-01-07T09:23:48.543Z,8.93
2023-01-07T09:24:48.540Z,8.93
2023-01-07T09:25:48.540Z,8.92
2023-01-07T09:26:48.520Z,8.93
2023-01-07T09:27:48.511Z,8.93
2023-01-07T09:28:48.512Z,8.90
2023-01-07T09:29:48.481Z,8.95
2023-01-07T09:30:48.478Z,8.92
2023-01-07T09:31:48.525Z,8.95
2023-01-07T09:32:48.463Z,8.93
2023-01-07T09:33:48.445Z,8.96
2023-01-07T09:34:48.433Z,8.98
2023-01-07T09:35:48.427Z,9.01
2023-01-07T09:36:48.414Z,9.04
2023-01-07T09:37:48.825Z,9.06
2023-01-07T09:38:48.400Z,9.09
2023-01-07T09:39:48.381Z,9.14
2023-01-07T09:40:48.791Z,9.16
2023-01-07T09:41:48.372Z,9.19
2023-01-07T09:42:48.370Z,9.26
2023-01-07T09:44:00.685Z,9.29
2023-01-07T09:44:48.344Z,9.40
2023-01-07T09:45:48.367Z,9.41
2023-01-07T09:46:48.351Z,9.44
2023-01-07T09:47:48.301Z,9.47
2023-01-07T09:48:48.301Z,9.48
2023-01-07T09:49:48.288Z,9.52
2023-01-07T09:50:48.709Z,9.57
2023-01-07T09:51:48.264Z,9.62
2023-01-07T09:52:48.279Z,9.67
2023-01-07T09:53:48.243Z,9.63
2023-01-07T09:54:48.247Z,9.72
2023-01-07T09:56:11.498Z,9.72
2023-01-07T09:56:48.224Z,9.75
2023-01-07T09:57:48.209Z,9.83
2023-01-07T09:58:48.205Z,9.84
2023-01-07T09:59:48.201Z,9.87
2023-01-07T10:00:48.183Z,9.90
2023-01-07T10:01:48.196Z,9.94
2023-01-07T10:02:48.226Z,9.98
2023-01-07T10:03:48.170Z,10.02
2023-01-07T10:04:48.159Z,10.02
2023-01-07T10:05:48.134Z,10.02
2023-01-07T10:06:48.516Z,10.02
2023-01-07T10:07:48.109Z,10.01
2023-01-07T10:08:48.116Z,10.02
2023-01-07T10:09:48.102Z,10.05
2023-01-07T10:10:48.091Z,10.06
2023-01-07T10:11:48.076Z,10.06
2023-01-07T10:12:48.065Z,10.12
2023-01-07T10:13:48.062Z,10.12
2023-01-07T10:14:48.048Z,10.17
2023-01-07T10:15:48.037Z,10.14
2023-01-07T10:16:48.078Z,10.17
2023-01-07T10:17:48.028Z,10.16
2023-01-07T10:18:48.019Z,10.14
2023-01-07T10:19:48.769Z,10.18
2023-01-07T10:20:48.003Z,10.16
2023-01-07T10:21:47.982Z,10.14
2023-01-07T10:22:47.975Z,10.12
2023-01-07T10:23:47.969Z,10.10
2023-01-07T10:24:48.349Z,10.06
2023-01-07T10:25:47.951Z,10.06
2023-01-07T10:26:47.941Z,10.05
2023-01-07T10:27:47.932Z,10.09
2023-01-07T10:28:47.924Z,10.09
2023-01-07T10:29:47.911Z,10.09
2023-01-07T10:30:47.911Z,10.08
2023-01-07T10:31:47.988Z,10.02
2023-01-07T10:32:47.888Z,10.01
2023-01-07T10:33:47.879Z,10.02
2023-01-07T10:34:47.867Z,10.02
2023-01-07T10:35:47.866Z,10.02
2023-01-07T10:36:47.862Z,9.98
2023-01-07T10:37:47.847Z,9.99
2023-01-07T10:38:47.839Z,10.06
2023-01-07T10:39:47.821Z,10.06
2023-01-07T10:40:47.819Z,9.99
2023-01-07T10:41:47.828Z,10.05
2023-01-07T10:42:47.797Z,9.99
2023-01-07T10:43:47.786Z,9.99
2023-01-07T10:44:47.821Z,10.03
2023-01-07T10:45:47.801Z,10.02
2023-01-07T10:46:47.764Z,10.03
2023-01-07T10:47:47.749Z,10.02
2023-01-07T10:48:47.745Z,9.96
2023-01-07T10:49:47.730Z,10.02
2023-01-07T10:50:47.725Z,10.05
2023-01-07T10:51:47.707Z,10.06
2023-01-07T10:52:47.713Z,10.05
2023-01-07T10:53:47.728Z,10.10
2023-01-07T10:54:47.688Z,10.12
2023-01-07T10:55:47.676Z,10.12
2023-01-07T10:56:47.680Z,10.16
2023-01-07T10:57:48.005Z,10.16
2023-01-07T10:58:48.083Z,10.14
2023-01-07T10:59:47.632Z,10.16
2023-01-07T11:00:47.687Z,10.14
2023-01-07T11:01:47.718Z,10.16
2023-01-07T11:02:47.644Z,10.16
2023-01-07T11:03:47.623Z,10.17
2023-01-07T11:04:47.594Z,10.17
2023-01-07T11:05:47.578Z,10.17
2023-01-07T11:06:47.579Z,10.20
2023-01-07T11:07:47.562Z,10.18
2023-01-07T11:08:47.564Z,10.16
2023-01-07T11:09:47.539Z,10.20
2023-01-07T11:10:47.537Z,10.16
2023-01-07T11:11:47.524Z,10.14
2023-01-07T11:12:47.528Z,10.14
2023-01-07T11:13:47.500Z,10.18
2023-01-07T11:14:47.501Z,10.12
2023-01-07T11:15:47.499Z,10.18
2023-01-07T11:16:47.564Z,10.18
2023-01-07T11:17:47.475Z,10.17
2023-01-07T11:18:47.463Z,10.18
2023-01-07T11:19:48.348Z,10.21
2023-01-07T11:20:47.456Z,10.20
2023-01-07T11:21:47.449Z,10.27
2023-01-07T11:22:47.423Z,10.24
2023-01-07T11:23:47.421Z,10.30
2023-01-07T11:24:47.409Z,10.34
2023-01-07T11:25:47.394Z,10.34
2023-01-07T11:26:47.401Z,10.26
2023-01-07T11:27:47.376Z,10.27
2023-01-07T11:28:47.371Z,10.31
2023-01-07T11:29:47.363Z,10.31
2023-01-07T11:30:47.349Z,10.28
2023-01-07T11:31:47.399Z,10.34
2023-01-07T11:32:47.339Z,10.27
2023-01-07T11:34:01.903Z,10.24
2023-01-07T11:34:47.320Z,10.21
2023-01-07T11:35:47.297Z,10.23
2023-01-07T11:36:47.548Z,10.17
2023-01-07T11:37:47.279Z,10.16
2023-01-07T11:38:47.283Z,10.14
2023-01-07T11:39:47.261Z,10.12
2023-01-07T11:40:47.333Z,10.10
2023-01-07T11:41:47.246Z,10.09
2023-01-07T11:42:47.274Z,10.09
2023-01-07T11:43:47.269Z,10.02
2023-01-07T11:44:47.225Z,10.05
2023-01-07T11:45:47.299Z,10.06
2023-01-07T11:46:47.267Z,10.08
2023-01-07T11:47:47.212Z,10.06
2023-01-07T11:48:47.194Z,10.01
2023-01-07T11:49:47.878Z,9.98
2023-01-07T11:50:47.164Z,9.91
2023-01-07T11:51:49.488Z,9.87
2023-01-07T11:52:47.143Z,9.85
2023-01-07T11:53:47.135Z,9.87
2023-01-07T11:54:47.133Z,9.81
2023-01-07T11:55:47.126Z,9.83
2023-01-07T11:56:47.111Z,9.84
2023-01-07T11:57:47.108Z,9.80
2023-01-07T11:58:47.091Z,9.81
2023-01-07T11:59:47.143Z,9.78
2023-01-07T12:00:47.113Z,9.78
2023-01-07T12:01:47.075Z,9.78
2023-01-07T12:02:47.133Z,9.73
2023-01-07T12:03:47.215Z,9.67
2023-01-07T12:04:47.035Z,9.69
2023-01-07T12:05:47.052Z,9.66
2023-01-07T12:06:47.056Z,9.66
2023-01-07T12:07:47.007Z,9.60
2023-01-07T12:08:46.995Z,9.60
2023-01-07T12:09:47.477Z,9.62
2023-01-07T12:10:46.984Z,9.59
2023-01-07T12:11:47.292Z,9.57
2023-01-07T12:12:46.955Z,9.59
2023-01-07T12:13:46.958Z,9.57
2023-01-07T12:14:46.941Z,9.51
2023-01-07T12:15:46.938Z,9.54
2023-01-07T12:16:47.034Z,9.51
2023-01-07T12:17:47.020Z,9.50
2023-01-07T12:18:46.902Z,9.45
2023-01-07T12:19:47.726Z,9.50
2023-01-07T12:20:46.885Z,9.50
2023-01-07T12:21:46.892Z,9.45
2023-01-07T12:22:46.878Z,9.45
2023-01-07T12:23:47.491Z,9.45
2023-01-07T12:24:46.844Z,9.47
2023-01-07T12:25:46.838Z,9.45
2023-01-07T12:26:46.824Z,9.42
2023-01-07T12:27:46.854Z,9.44
2023-01-07T12:28:46.952Z,9.47
2023-01-07T12:29:46.804Z,9.41
2023-01-07T12:30:46.787Z,9.40
2023-01-07T12:31:46.898Z,9.42
2023-01-07T12:32:46.765Z,9.40
2023-01-07T12:33:47.005Z,9.42
2023-01-07T12:34:46.760Z,9.37
2023-01-07T12:35:46.738Z,9.40
2023-01-07T12:36:46.723Z,9.34
2023-01-07T12:37:46.735Z,9.44
2023-01-07T12:38:46.706Z,9.36
2023-01-07T12:39:46.725Z,9.40
2023-01-07T12:40:46.723Z,9.41
2023-01-07T12:41:46.694Z,9.33
2023-01-07T12:42:46.722Z,9.37
2023-01-07T12:43:46.663Z,9.37
2023-01-07T12:44:46.709Z,9.36
2023-01-07T12:45:46.684Z,9.37
2023-01-07T12:46:46.635Z,9.40
2023-01-07T12:47:47.085Z,9.36
2023-01-07T12:48:46.628Z,9.40
2023-01-07T12:49:46.611Z,9.36
2023-01-07T12:50:46.623Z,9.36
2023-01-07T12:51:46.602Z,9.40
2023-01-07T12:52:46.586Z,9.34
2023-01-07T12:53:46.628Z,9.33
2023-01-07T12:54:46.552Z,9.36
2023-01-07T12:55:46.563Z,9.32
2023-01-07T12:56:46.548Z,9.33
2023-01-07T12:57:46.580Z,9.36
2023-01-07T12:58:46.537Z,9.32
2023-01-07T12:59:48.100Z,9.34
2023-01-07T13:00:46.505Z,9.34
2023-01-07T13:01:46.643Z,9.32
2023-01-07T13:02:46.471Z,9.34
2023-01-07T13:03:46.466Z,9.33
2023-01-07T13:04:46.501Z,9.34
2023-01-07T13:05:46.469Z,9.29
2023-01-07T13:06:46.429Z,9.29
2023-01-07T13:07:46.422Z,9.36
2023-01-07T13:08:46.410Z,9.33
2023-01-07T13:09:46.410Z,9.32
2023-01-07T13:10:46.426Z,9.33
2023-01-07T13:11:46.386Z,9.33
2023-01-07T13:12:46.375Z,9.33
2023-01-07T13:13:46.368Z,9.30
2023-01-07T13:14:46.347Z,9.36
2023-01-07T13:15:46.361Z,9.32